createdAt,value
2023-01-08T12:13:27.426Z,101480.64
2023-01-08T12:16:33.751Z,101482.26
2023-01-08T12:19:01.163Z,101476.29
2023-01-08T12:21:33.378Z,101474.30
2023-01-08T12:24:31.105Z,101475.89
2023-01-08T12:27:48.375Z,101476.02
2023-01-08T12:30:29.466Z,101478.19
2023-01-08T12:33:18.077Z,101472.61
2023-01-08T12:35:50.023Z,101475.48
2023-01-08T12:38:36.704Z,101475.20
2023-01-08T12:41:09.598Z,101469.90
2023-01-08T12:43:43.541Z,101469.56
2023-01-08T12:46:12.449Z,101466.72
2023-01-08T12:48:39.889Z,101467.54
2023-01-08T12:51:17.807Z,101460.59
2023-01-08T12:54:19.192Z,101460.50
2023-01-08T12:56:59.471Z,101455.03
2023-01-08T12:59:37.512Z,101449.12
2023-01-08T13:02:39.938Z,101445.48
2023-01-08T13:05:11.584Z,101442.80
2023-01-08T13:07:43.859Z,101446.01
2023-01-08T13:10:40.926Z,101447.92
2023-01-08T13:13:23.699Z,101439.33
2023-01-08T13:15:51.380Z,101441.25
2023-01-08T13:18:20.523Z,101434.64
2023-01-08T13:20:58.467Z,101440.83
2023-01-08T13:23:27.290Z,101443.73
2023-01-08T13:25:56.378Z,101447.92
2023-01-08T13:28:44.659Z,101450.73
2023-01-08T13:31:21.669Z,101452.02
2023-01-08T13:33:52.138Z,101453.33
2023-01-08T13:36:23.876Z,101449.68
2023-01-08T13:39:09.665Z,101452.36
2023-01-08T13:41:41.515Z,101455.84
2023-01-08T13:44:21.007Z,101457.48
2023-01-08T13:47:00.464Z,101455.65
2023-01-08T13:49:51.491Z,101456.26
2023-01-08T13:53:09.645Z,101451.33
2023-01-08T13:55:39.010Z,101447.53
2023-01-08T13:58:14.109Z,101448.26
2023-01-08T14:00:46.703Z,101444.85
2023-01-08T14:03:32.017Z,101444.98
2023-01-08T14:06:20.208Z,101443.37
2023-01-08T14:08:58.133Z,101442.68
2023-01-08T14:11:44.537Z,101435.00
2023-01-08T14:14:12.944Z,101432.31
2023-01-08T14:16:41.307Z,101432.07
2023-01-08T14:19:08.816Z,101432.83
2023-01-08T14:21:37.257Z,101430.09
2023-01-08T14:24:05.126Z,101426.89
2023-01-08T14:26:38.526Z,101423.14
2023-01-08T14:29:14.824Z,101420.27
2023-01-08T14:31:51.755Z,101413.58
2023-01-08T14:34:20.193Z,101409.18
2023-01-08T14:36:49.060Z,101407.27
2023-01-08T14:39:21.800Z,101403.20
2023-01-08T14:42:08.089Z,101399.15
2023-01-08T14:44:40.441Z,101400.89
2023-01-08T14:47:16.547Z,101404.88
2023-01-08T14:49:47.420Z,101406.23
2023-01-08T14:52:18.060Z,101406.80
2023-01-08T14:54:45.510Z,101402.63
2023-01-08T14:57:16.145Z,101400.31
2023-01-08T14:59:43.564Z,101402.55
2023-01-08T15:02:25.305Z,101406.41
2023-01-08T15:05:26.825Z,101400.77
2023-01-08T15:08:02.624Z,101402.52
2023-01-08T15:10:37.201Z,101401.92
2023-01-08T15:13:07.258Z,101402.88
2023-01-08T15:15:39.815Z,101395.24
2023-01-08T15:18:07.902Z,101393.79
2023-01-08T15:20:35.376Z,101395.66
2023-01-08T15:23:02.895Z,101395.23
2023-01-08T15:25:30.565Z,101393.95
2023-01-08T15:28:02.618Z,101400.20
2023-01-08T15:30:36.160Z,101405.75
2023-01-08T15:33:20.931Z,101411.84
2023-01-08T15:35:48.928Z,101413.15
2023-01-08T15:38:17.355Z,101408.69
2023-01-08T15:40:46.728Z,101406.55
2023-01-08T15:43:16.480Z,101410.67
2023-01-08T15:45:45.900Z,101411.77
2023-01-08T15:48:13.266Z,101412.02
2023-01-08T15:50:42.314Z,101418.59
2023-01-08T15:53:14.639Z,101412.54
2023-01-08T15:55:43.338Z,101408.63
2023-01-08T15:58:12.108Z,101407.37
2023-01-08T16:00:42.849Z,101410.96
2023-01-08T16:03:12.300Z,101411.75
2023-01-08T16:05:41.312Z,101408.81
2023-01-08T16:08:10.240Z,101409.73
2023-01-08T16:10:37.942Z,101400.70
2023-01-08T16:13:06.654Z,101403.58
2023-01-08T16:15:38.833Z,101398.20
2023-01-08T16:18:06.339Z,101398.65
2023-01-08T16:20:33.832Z,101395.95
2023-01-08T16:23:01.168Z,101401.55
2023-01-08T16:25:31.435Z,101401.27
2023-01-08T16:27:58.988Z,101408.31
2023-01-08T16:30:27.578Z,101405.02
2023-01-08T16:32:55.146Z,101402.45
2023-01-08T16:35:23.132Z,101406.41
2023-01-08T16:37:51.411Z,101405.44
2023-01-08T16:40:18.908Z,101401.83
2023-01-08T16:42:46.839Z,101406.27
2023-01-08T16:45:14.782Z,101411.05
2023-01-08T16:47:42.245Z,101409.04
2023-01-08T16:50:11.217Z,101404.20
2023-01-08T16:52:40.098Z,101401.94
2023-01-08T16:55:08.181Z,101407.67
2023-01-08T16:57:35.765Z,101410.25
2023-01-08T17:00:07.998Z,101410.02
2023-01-08T17:02:36.234Z,101411.36
2023-01-08T17:05:03.982Z,101415.98
2023-01-08T17:07:31.399Z,101416.07
2023-01-08T17:09:59.201Z,101417.17
2023-01-08T17:12:26.619Z,101419.35
2023-01-08T17:14:54.480Z,101418.88
2023-01-08T17:17:22.097Z,101422.23
2023-01-08T17:19:49.645Z,101425.98
2023-01-08T17:22:19.157Z,101425.65
2023-01-08T17:24:46.761Z,101424.08
2023-01-08T17:27:14.339Z,101425.52
2023-01-08T17:29:41.728Z,101422.22
2023-01-08T17:32:09.825Z,101420.20
2023-01-08T17:34:37.610Z,101419.55
2023-01-08T17:37:04.954Z,101423.15
2023-01-08T17:39:33.446Z,101425.89
2023-01-08T17:42:19.471Z,101426.17
2023-01-08T17:44:46.941Z,101428.70
2023-01-08T17:47:14.347Z,101427.35
2023-01-08T17:49:42.112Z,101427.23
2023-01-08T17:52:09.613Z,101421.14
2023-01-08T17:54:37.049Z,101422.81
2023-01-08T17:57:04.541Z,101425.86
2023-01-08T17:59:32.366Z,101428.21
2023-01-08T18:01:59.976Z,101429.84
2023-01-08T18:04:29.094Z,101430.95
2023-01-08T18:06:56.715Z,101427.15
2023-01-08T18:09:24.728Z,101425.99
2023-01-08T19:34:34.132Z,101409.11
2023-01-08T19:37:02.310Z,101409.87
2023-01-08T19:39:32.734Z,101407.86
2023-01-08T19:42:18.835Z,101402.04
2023-01-08T19:44:46.432Z,101396.50
2023-01-08T19:47:14.065Z,101393.25
2023-01-08T19:49:48.057Z,101390.83
2023-01-08T19:52:16.825Z,101386.98
2023-01-08T19:54:44.440Z,101387.02
2023-01-08T19:57:11.988Z,101386.66
2023-01-08T19:59:39.560Z,101388.05
2023-01-08T20:02:09.282Z,101389.60
2023-01-08T20:04:40.190Z,101390.84
2023-01-08T20:07:07.695Z,101387.88
2023-01-08T20:09:35.342Z,101386.84
2023-01-08T20:12:03.042Z,101387.91
2023-01-08T20:14:30.558Z,101383.62
2023-01-08T20:16:58.182Z,101382.09
2023-01-08T20:19:25.697Z,101376.56
2023-01-08T20:21:53.157Z,101375.92
2023-01-08T20:24:20.886Z,101372.47
2023-01-08T20:26:48.415Z,101377.23
2023-01-08T20:29:16.192Z,101372.54
2023-01-08T20:31:44.508Z,101371.52
2023-01-08T20:34:15.778Z,101370.56
2023-01-08T20:36:44.634Z,101367.82
2023-01-08T20:39:13.996Z,101361.60
2023-01-08T20:41:46.703Z,101359.92
2023-01-08T20:44:28.870Z,101365.52
2023-01-08T20:46:56.534Z,101363.42
2023-01-08T20:49:25.632Z,101362.19
2023-01-08T20:51:58.558Z,101361.63
2023-01-08T20:54:26.832Z,101370.35
2023-01-08T20:56:58.430Z,101378.46
2023-01-08T20:59:26.011Z,101374.88
2023-01-08T21:01:53.542Z,101366.94
2023-01-08T21:04:21.131Z,101366.32
2023-01-08T21:06:48.837Z,101358.39
2023-01-08T21:09:17.992Z,101358.17
2023-01-08T21:11:45.383Z,101352.73
2023-01-08T21:14:12.942Z,101349.94
2023-01-08T21:16:40.927Z,101348.16
2023-01-08T21:19:10.760Z,101345.58
2023-01-08T21:21:40.770Z,101339.05
2023-01-08T21:24:09.762Z,101335.50
2023-01-08T21:26:37.861Z,101339.94
2023-01-08T21:29:09.301Z,101333.88
2023-01-08T21:31:36.982Z,101326.23
2023-01-08T21:34:04.675Z,101323.61
2023-01-08T21:36:32.531Z,101325.52
2023-01-08T21:39:00.999Z,101323.95
2023-01-08T21:41:48.129Z,101326.10
2023-01-08T21:44:35.768Z,101322.69
2023-01-08T21:47:03.959Z,101321.38
2023-01-08T21:49:32.278Z,101322.81
2023-01-08T21:52:18.471Z,101318.86
2023-01-08T21:54:46.003Z,101318.20
2023-01-08T21:57:13.398Z,101314.16
2023-01-08T21:59:40.864Z,101315.03
2023-01-08T22:02:08.327Z,101309.46
2023-01-08T22:04:35.898Z,101308.14
2023-01-08T22:07:03.407Z,101302.61
2023-01-08T22:09:30.959Z,101299.50
2023-01-08T22:11:58.513Z,101295.95
2023-01-08T22:14:26.045Z,101297.86
2023-01-08T22:16:53.438Z,101295.14
2023-01-08T22:19:20.919Z,101292.17
2023-01-08T22:21:48.410Z,101284.88
2023-01-08T22:24:15.966Z,101281.78
2023-01-08T22:26:43.502Z,101281.88
2023-01-08T22:29:11.020Z,101286.33
2023-01-08T22:31:38.550Z,101276.89
2023-01-08T22:34:06.072Z,101273.05
2023-01-08T22:36:33.600Z,101270.71
2023-01-08T22:39:01.203Z,101264.92
2023-01-08T22:41:28.663Z,101259.79
2023-01-08T22:43:57.107Z,101249.44
2023-01-08T22:46:24.780Z,101245.95
2023-01-08T22:48:52.276Z,101242.97
2023-01-08T22:51:25.205Z,101239.77
2023-01-08T22:53:54.859Z,101246.87
2023-01-08T22:56:22.334Z,101247.73
2023-01-08T22:58:49.879Z,101242.95
2023-01-08T23:01:27.998Z,101242.03
2023-01-08T23:03:58.048Z,101237.64
2023-01-08T23:06:26.678Z,101233.02
2023-01-08T23:08:54.661Z,101228.06
2023-01-08T23:11:22.569Z,101234.64
2023-01-08T23:13:51.569Z,101233.77
2023-01-08T23:16:21.819Z,101233.92
2023-01-08T23:18:50.408Z,101231.07
2023-01-08T23:21:19.160Z,101226.14
2023-01-08T23:23:46.662Z,101223.77
2023-01-08T23:26:19.860Z,101217.51
2023-01-08T23:28:48.205Z,101216.34
2023-01-08T23:31:17.663Z,101209.88
2023-01-08T23:33:45.245Z,101206.21
2023-01-08T23:36:18.719Z,101209.34
2023-01-08T23:38:46.837Z,101205.85
2023-01-08T23:41:14.496Z,101203.91
2023-01-08T23:43:42.119Z,101203.75
2023-01-08T23:46:09.779Z,101203.20
2023-01-08T23:48:37.739Z,101201.34
2023-01-08T23:51:05.433Z,101197.79
2023-01-08T23:53:32.953Z,101202.41
2023-01-08T23:56:00.815Z,101201.55
2023-01-08T23:58:28.396Z,101198.58
